GW0954 Weather Reports


Display with metric or nautical units.
time (UTC)temp
F
wind
direction
speed
MPH
gust
MPH
rain 1hr
in
rain 24hr
in
rain mn
in
humidity
%
barometer
mb
20260906114533 68 66 2.0 4.0 0.00 0.00 0.00 72 1020.3
20260906113038 68 141 2.0 5.0 0.00 0.00 0.00 72 1019.9
20260906111525 68 101 1.0 5.0 0.00 0.00 0.00 72 1019.6
20260906110021 68 122 1.0 6.0 0.00 0.00 0.00 72 1019.6
20260906104519 69 126 2.0 7.0 0.00 0.00 0.00 72 1019.5
20260906103019 69 117 3.0 6.0 0.00 0.00 0.00 72 1019.4
20260906101517 69 121 1.0 7.0 0.00 0.00 0.00 71 1019.5
20260906100015 69 117 3.0 6.0 0.00 0.00 0.00 72 1019.2
20260906094524 69 118 4.0 8.0 0.00 0.00 0.00 71 1019.3
20260906093012 70 108 4.0 9.0 0.00 0.00 0.00 71 1019.1
20260906091523 70 88 2.0 7.0 0.00 0.00 0.00 71 1019.1
20260906090008 70 133 2.0 8.0 0.00 0.00 0.00 71 1018.9
20260906084516 70 133 3.0 9.0 0.00 0.00 0.00 71 1018.6
20260906083009 71 128 3.0 5.0 0.00 0.00 0.00 71 1018.4
20260906081517 71 123 1.0 9.0 0.00 0.00 0.00 71 1018.5
20260906080004 71 102 4.0 7.0 0.00 0.00 0.00 70 1018.4
20260906074604 71 125 1.0 6.0 0.00 0.00 0.00 70 1018.5
20260906073002 71 135 3.0 7.0 0.00 0.00 0.00 70 1018.6
20260906071501 71 122 3.0 6.0 0.00 0.00 0.00 70 1018.6
20260906070000 71 85 2.0 4.0 0.00 0.00 0.00 70 1018.6
20260906064601 71 123 2.0 4.0 0.00 0.00 0.00 70 1018.6
20260906063102 71 115 2.0 7.0 0.00 0.00 0.00 70 1018.6
20260906061557 71 138 6.0 11.0 0.00 0.00 0.00 70 1018.3
20260906060054 71 73 2.0 6.0 0.00 0.00 0.00 69 1018.3
20260906054556 72 109 3.0 8.0 0.00 0.00 0.00 69 1018.1
20260906053051 72 96 1.0 5.0 0.00 0.00 0.00 68 1018.2
20260906051553 72 117 2.0 7.0 0.00 0.00 0.00 67 1018.1
20260906050110 73 105 2.0 7.0 0.00 0.00 0.00 67 1018.1
20260906044552 73 89 3.0 10.0 0.00 0.00 0.00 66 1018.2
20260906043057 73 61 1.0 7.0 0.00 0.00 0.00 66 1018.1
20260906041546 73 114 2.0 6.0 0.00 0.00 0.00 66 1018.0
20260906040047 74 102 3.0 7.0 0.00 0.00 0.00 66 1018.1
20260906034545 73 70 3.0 8.0 0.00 0.00 0.00 66 1017.8
20260906033045 73 53 3.0 5.0 0.00 0.00 0.00 66 1017.9
20260906031545 74 67 2.0 4.0 0.00 0.00 0.00 66 1017.8
20260906030043 74 77 2.0 4.0 0.00 0.00 0.00 66 1017.5
20260906024542 74 74 2.0 5.0 0.00 0.00 0.00 66 1017.0
20260906023042 75 69 2.0 5.0 0.00 0.00 0.00 66 1016.9
20260906021550 75 75 1.0 5.0 0.00 0.00 0.00 66 1016.7
20260906020041 76 74 2.0 7.0 0.00 0.00 0.00 66 1016.3
20260906014540 76 69 2.0 7.0 0.00 0.00 0.00 66 1015.8
20260906013040 77 64 2.0 4.0 0.00 0.00 0.00 66 1015.4
20260906011540 78 55 1.0 3.0 0.00 0.00 0.00 65 1015.4
20260906010042 79 49 2.0 3.0 0.00 0.00 0.00 65 1015.6
20260906004542 80 48 1.0 6.0 0.00 0.00 0.00 64 1015.9
20260906003038 80 34 4.0 6.0 0.00 0.00 0.00 64 1015.7
20260906001538 82 49 3.0 6.0 0.00 0.00 0.00 62 1015.8
20260906000036 82 78 1.0 3.0 0.00 0.00 0.00 62 1015.9
20260905234540 83 78 2.0 4.0 0.00 0.00 0.00 61 1015.8
20260905233036 84 70 2.0 5.0 0.00 0.00 0.00 59 1015.6
20260905231537 84 84 1.0 6.0 0.00 0.00 0.00 58 1015.6
20260905230035 85 86 2.0 6.0 0.00 0.00 0.00 58 1015.5
20260905224540 84 69 3.0 8.0 0.00 0.00 0.00 58 1015.4
20260905223036 85 74 2.0 6.0 0.00 0.00 0.00 57 1015.5
20260905221537 85 84 3.0 10.0 0.00 0.00 0.00 56 1015.5
20260905220033 85 67 4.0 9.0 0.00 0.00 0.00 56 1015.5
20260905214532 85 79 4.0 10.0 0.00 0.00 0.00 55 1015.2
20260905213031 87 85 8.0 13.0 0.00 0.00 0.00 52 1015.2
20260905211529 87 68 4.0 12.0 0.00 0.00 0.00 54 1015.0
20260905210040 87 134 8.0 19.0 0.00 0.00 0.00 55 1014.4
20260905204528 87 70 5.0 15.0 0.00 0.00 0.00 55 1014.7
20260905203028 87 123 5.0 15.0 0.00 0.00 0.00 55 1015.0
20260905201535 87 74 5.0 12.0 0.00 0.00 0.00 56 1015.4
20260905200033 86 98 6.0 12.0 0.00 0.00 0.00 57 1016.0
20260905194522 86 49 6.0 10.0 0.00 0.00 0.00 57 1016.2
20260905193027 86 50 6.0 13.0 0.00 0.00 0.00 56 1016.1
20260905191520 86 42 6.0 11.0 0.00 0.00 0.00 58 1016.5
20260905190018 85 34 9.0 13.0 0.00 0.00 0.00 59 1016.6
20260905184523 84 67 4.0 12.0 0.00 0.00 0.00 61 1017.1
20260905183025 83 53 5.0 12.0 0.00 0.00 0.00 60 1017.6
20260905181517 84 36 6.0 13.0 0.00 0.00 0.00 59 1017.7
20260905180015 84 65 6.0 11.0 0.00 0.00 0.00 60 1017.4
20260905174526 83 46 6.0 12.0 0.00 0.00 0.00 60 1017.7
20260905173008 83 51 5.0 10.0 0.00 0.00 0.00 60 1018.2
20260905171507 82 48 2.0 9.0 0.00 0.00 0.00 61 1018.5
20260905170003 82 50 4.0 9.0 0.00 0.00 0.00 61 1018.1
20260905164502 81 75 5.0 9.0 0.00 0.00 0.00 61 1017.9
20260905163002 81 20 3.0 9.0 0.00 0.00 0.00 61 1018.1
20260905161501 81 342 7.0 11.0 0.00 0.00 0.00 61 1018.0
20260905160104 81 36 5.0 10.0 0.00 0.00 0.00 61 1018.1
20260905154658 81 29 3.0 8.0 0.00 0.00 0.00 62 1018.0
20260905153056 81 30 4.0 8.0 0.00 0.00 0.00 61 1017.8
20260905151555 81 5 4.0 10.0 0.00 0.00 0.00 62 1017.6
20260905150052 80 336 3.0 7.0 0.00 0.00 0.00 63 1017.6
20260905144552 79 45 3.0 5.0 0.00 0.00 0.00 64 1017.5
20260905143047 78 333 2.0 5.0 0.00 0.00 0.00 66 1017.4
20260905141602 76 41 4.0 7.0 0.00 0.00 0.00 68 1017.3
20260905140053 75 44 4.0 8.0 0.00 0.00 0.00 70 1017.2
20260905134544 74 48 2.0 5.0 0.00 0.00 0.00 71 1017.1
20260905133050 73 41 1.0 4.0 0.00 0.00 0.00 72 1017.0
20260905131550 73 26 2.0 5.0 0.00 0.00 0.00 72 1017.1
20260905130033 72 43 2.0 6.0 0.00 0.00 0.00 72 1016.9
20260905124531 71 44 3.0 5.0 0.00 0.00 0.00 72 1016.7
20260905123030 71 48 3.0 6.0 0.00 0.00 0.00 72 1016.6
20260905121529 71 28 1.0 3.0 0.00 0.00 0.00 72 1016.6
20260905120028 71 38 0.0 1.0 0.00 0.00 0.00 72 1016.5